sim
Sign-in with your pilot id or email,
or register
Callsign
Passwort

Schedule Details

Flight Number: RYR6447 (2)
Departure: Thessaloniki International Airport (LGTS) at 09:10
Arrival: Brussels South Charleroi Airport (EBCI) at 12:10
Route: Ryanair Passenger Schedule. Enter filed route here before submitting Pirep.

Weather Information
Getting current METAR information for LGTS 211520Z 35006KT CAVOK 16/00 Q1021 NOSIG
Getting current METAR information for EBCI 211520Z 25007KT 230V290 9999 FEW025 12/06 Q1028 NOSIG

Schedule Frequency

Route Map